sensor_id;sensor_type;location;lat;lon;timestamp;temperature;humidity
7411;DHT22;3747;48.628;9.058;2024-01-07T00:00:45;3.00;99.90
7411;DHT22;3747;48.628;9.058;2024-01-07T00:03:11;3.00;99.90
7411;DHT22;3747;48.628;9.058;2024-01-07T00:05:38;3.00;99.90
7411;DHT22;3747;48.628;9.058;2024-01-07T00:08:05;3.10;99.90
7411;DHT22;3747;48.628;9.058;2024-01-07T00:10:32;3.10;99.90
7411;DHT22;3747;48.628;9.058;2024-01-07T00:13:00;3.10;99.90
7411;DHT22;3747;48.628;9.058;2024-01-07T00:15:27;3.10;99.90
7411;DHT22;3747;48.628;9.058;2024-01-07T00:17:53;3.10;99.90
7411;DHT22;3747;48.628;9.058;2024-01-07T00:20:20;3.10;99.90
7411;DHT22;3747;48.628;9.058;2024-01-07T00:22:46;3.10;99.90
7411;DHT22;3747;48.628;9.058;2024-01-07T00:25:13;3.10;99.90
7411;DHT22;3747;48.628;9.058;2024-01-07T00:27:40;3.10;99.90
7411;DHT22;3747;48.628;9.058;2024-01-07T00:30:08;3.10;99.90
7411;DHT22;3747;48.628;9.058;2024-01-07T00:32:35;3.00;99.90
7411;DHT22;3747;48.628;9.058;2024-01-07T00:35:02;3.10;99.90
7411;DHT22;3747;48.628;9.058;2024-01-07T00:37:29;3.10;99.90
7411;DHT22;3747;48.628;9.058;2024-01-07T00:39:55;3.10;99.90
7411;DHT22;3747;48.628;9.058;2024-01-07T00:42:22;3.10;99.90
7411;DHT22;3747;48.628;9.058;2024-01-07T00:44:49;3.10;99.90
7411;DHT22;3747;48.628;9.058;2024-01-07T00:47:17;3.10;99.90
7411;DHT22;3747;48.628;9.058;2024-01-07T00:49:43;3.10;99.90
7411;DHT22;3747;48.628;9.058;2024-01-07T00:52:10;3.10;99.90
7411;DHT22;3747;48.628;9.058;2024-01-07T00:54:37;3.10;99.90
7411;DHT22;3747;48.628;9.058;2024-01-07T00:57:04;3.10;99.90
7411;DHT22;3747;48.628;9.058;2024-01-07T00:59:30;3.10;99.90
7411;DHT22;3747;48.628;9.058;2024-01-07T01:01:57;3.10;99.90
7411;DHT22;3747;48.628;9.058;2024-01-07T01:04:25;3.10;99.90
7411;DHT22;3747;48.628;9.058;2024-01-07T01:06:52;3.20;99.90
7411;DHT22;3747;48.628;9.058;2024-01-07T01:09:18;3.10;99.90
7411;DHT22;3747;48.628;9.058;2024-01-07T01:11:45;3.20;99.90
7411;DHT22;3747;48.628;9.058;2024-01-07T01:14:12;3.20;99.90
7411;DHT22;3747;48.628;9.058;2024-01-07T01:16:38;3.20;99.90
7411;DHT22;3747;48.628;9.058;2024-01-07T01:19:05;3.20;99.90
7411;DHT22;3747;48.628;9.058;2024-01-07T01:21:33;3.20;99.90
7411;DHT22;3747;48.628;9.058;2024-01-07T01:24:00;3.10;99.90
7411;DHT22;3747;48.628;9.058;2024-01-07T01:26:27;3.20;99.90
7411;DHT22;3747;48.628;9.058;2024-01-07T01:28:53;3.10;99.90
7411;DHT22;3747;48.628;9.058;2024-01-07T01:31:20;3.10;99.90
7411;DHT22;3747;48.628;9.058;2024-01-07T01:33:47;3.10;99.90
7411;DHT22;3747;48.628;9.058;2024-01-07T01:36:14;3.10;99.90
7411;DHT22;3747;48.628;9.058;2024-01-07T01:38:42;3.10;99.90
7411;DHT22;3747;48.628;9.058;2024-01-07T01:41:08;3.20;99.90
7411;DHT22;3747;48.628;9.058;2024-01-07T01:43:35;3.20;99.90
7411;DHT22;3747;48.628;9.058;2024-01-07T01:46:02;3.20;99.90
7411;DHT22;3747;48.628;9.058;2024-01-07T01:48:29;3.20;99.90
7411;DHT22;3747;48.628;9.058;2024-01-07T01:50:56;3.20;99.90
7411;DHT22;3747;48.628;9.058;2024-01-07T01:53:24;3.10;99.90
7411;DHT22;3747;48.628;9.058;2024-01-07T01:55:52;3.10;99.90
7411;DHT22;3747;48.628;9.058;2024-01-07T01:58:19;3.20;99.90
7411;DHT22;3747;48.628;9.058;2024-01-07T02:00:47;3.20;99.90
7411;DHT22;3747;48.628;9.058;2024-01-07T02:03:13;3.20;99.90
7411;DHT22;3747;48.628;9.058;2024-01-07T02:05:40;3.20;99.90
7411;DHT22;3747;48.628;9.058;2024-01-07T02:08:07;3.20;99.90
7411;DHT22;3747;48.628;9.058;2024-01-07T02:10:33;3.20;99.90
7411;DHT22;3747;48.628;9.058;2024-01-07T02:13:03;3.20;99.90
7411;DHT22;3747;48.628;9.058;2024-01-07T02:15:30;3.20;99.90
7411;DHT22;3747;48.628;9.058;2024-01-07T02:17:57;3.10;99.90
7411;DHT22;3747;48.628;9.058;2024-01-07T02:20:23;3.10;99.90
7411;DHT22;3747;48.628;9.058;2024-01-07T02:22:50;3.10;99.90
7411;DHT22;3747;48.628;9.058;2024-01-07T02:25:18;3.10;99.90
7411;DHT22;3747;48.628;9.058;2024-01-07T02:27:45;3.00;99.90
7411;DHT22;3747;48.628;9.058;2024-01-07T02:30:12;3.00;99.90
7411;DHT22;3747;48.628;9.058;2024-01-07T02:32:39;3.10;99.90
7411;DHT22;3747;48.628;9.058;2024-01-07T02:35:06;3.10;99.90
7411;DHT22;3747;48.628;9.058;2024-01-07T02:37:32;3.00;99.90
7411;DHT22;3747;48.628;9.058;2024-01-07T02:39:59;3.00;99.90
7411;DHT22;3747;48.628;9.058;2024-01-07T02:42:27;3.00;99.90
7411;DHT22;3747;48.628;9.058;2024-01-07T02:44:54;3.00;99.90
7411;DHT22;3747;48.628;9.058;2024-01-07T02:47:21;3.00;99.90
7411;DHT22;3747;48.628;9.058;2024-01-07T02:49:47;3.00;99.90
7411;DHT22;3747;48.628;9.058;2024-01-07T02:52:14;3.00;99.90
7411;DHT22;3747;48.628;9.058;2024-01-07T02:54:40;3.00;99.90
7411;DHT22;3747;48.628;9.058;2024-01-07T02:57:07;3.00;99.90
7411;DHT22;3747;48.628;9.058;2024-01-07T02:59:35;3.00;99.90
7411;DHT22;3747;48.628;9.058;2024-01-07T03:02:02;3.00;99.90
7411;DHT22;3747;48.628;9.058;2024-01-07T03:04:29;3.00;99.90
7411;DHT22;3747;48.628;9.058;2024-01-07T03:06:55;3.00;99.90
7411;DHT22;3747;48.628;9.058;2024-01-07T03:09:22;3.00;99.90
7411;DHT22;3747;48.628;9.058;2024-01-07T03:11:49;3.00;99.90
7411;DHT22;3747;48.628;9.058;2024-01-07T03:14:15;3.00;99.90
7411;DHT22;3747;48.628;9.058;2024-01-07T03:16:47;3.00;99.90
7411;DHT22;3747;48.628;9.058;2024-01-07T03:19:13;2.90;99.90
7411;DHT22;3747;48.628;9.058;2024-01-07T03:21:40;2.90;99.90
7411;DHT22;3747;48.628;9.058;2024-01-07T03:24:07;2.90;99.90
7411;DHT22;3747;48.628;9.058;2024-01-07T03:26:34;2.90;99.90
7411;DHT22;3747;48.628;9.058;2024-01-07T03:29:00;2.90;99.90
7411;DHT22;3747;48.628;9.058;2024-01-07T03:31:28;2.80;99.90
7411;DHT22;3747;48.628;9.058;2024-01-07T03:33:56;2.80;99.90
7411;DHT22;3747;48.628;9.058;2024-01-07T03:36:23;2.80;99.90
7411;DHT22;3747;48.628;9.058;2024-01-07T03:38:49;2.90;99.90
7411;DHT22;3747;48.628;9.058;2024-01-07T03:41:16;2.80;99.90
7411;DHT22;3747;48.628;9.058;2024-01-07T03:43:44;2.80;99.90
7411;DHT22;3747;48.628;9.058;2024-01-07T03:46:11;2.90;99.90
7411;DHT22;3747;48.628;9.058;2024-01-07T03:48:37;2.90;99.90
7411;DHT22;3747;48.628;9.058;2024-01-07T03:51:05;2.90;99.90
7411;DHT22;3747;48.628;9.058;2024-01-07T03:53:32;2.90;99.90
7411;DHT22;3747;48.628;9.058;2024-01-07T03:55:59;2.90;99.90
7411;DHT22;3747;48.628;9.058;2024-01-07T03:58:26;2.90;99.90
7411;DHT22;3747;48.628;9.058;2024-01-07T04:00:52;2.90;99.90
7411;DHT22;3747;48.628;9.058;2024-01-07T04:03:19;2.90;99.90
7411;DHT22;3747;48.628;9.058;2024-01-07T04:05:46;2.90;99.90
7411;DHT22;3747;48.628;9.058;2024-01-07T04:08:14;2.90;99.90
7411;DHT22;3747;48.628;9.058;2024-01-07T04:10:41;2.90;99.90
7411;DHT22;3747;48.628;9.058;2024-01-07T04:13:08;2.90;99.90
7411;DHT22;3747;48.628;9.058;2024-01-07T04:15:35;2.90;99.90
7411;DHT22;3747;48.628;9.058;2024-01-07T04:18:01;2.90;99.90
7411;DHT22;3747;48.628;9.058;2024-01-07T04:20:29;2.90;99.90
7411;DHT22;3747;48.628;9.058;2024-01-07T04:22:56;2.90;99.90
7411;DHT22;3747;48.628;9.058;2024-01-07T04:25:24;2.90;99.90
7411;DHT22;3747;48.628;9.058;2024-01-07T04:27:51;2.90;99.90
7411;DHT22;3747;48.628;9.058;2024-01-07T04:30:17;2.80;99.90
7411;DHT22;3747;48.628;9.058;2024-01-07T04:32:44;2.80;99.90
7411;DHT22;3747;48.628;9.058;2024-01-07T04:35:11;2.80;99.90
7411;DHT22;3747;48.628;9.058;2024-01-07T04:37:37;2.80;99.90
7411;DHT22;3747;48.628;9.058;2024-01-07T04:40:05;2.70;99.90
7411;DHT22;3747;48.628;9.058;2024-01-07T04:42:34;2.70;99.90
7411;DHT22;3747;48.628;9.058;2024-01-07T04:45:00;2.70;99.90
7411;DHT22;3747;48.628;9.058;2024-01-07T04:47:28;2.70;99.90
7411;DHT22;3747;48.628;9.058;2024-01-07T04:49:56;2.70;99.90
7411;DHT22;3747;48.628;9.058;2024-01-07T04:52:23;2.70;99.90
7411;DHT22;3747;48.628;9.058;2024-01-07T04:54:50;2.70;99.90
7411;DHT22;3747;48.628;9.058;2024-01-07T04:57:17;2.70;99.90
7411;DHT22;3747;48.628;9.058;2024-01-07T04:59:45;2.70;99.90
7411;DHT22;3747;48.628;9.058;2024-01-07T05:02:12;2.70;99.90
7411;DHT22;3747;48.628;9.058;2024-01-07T05:04:39;2.60;99.90
7411;DHT22;3747;48.628;9.058;2024-01-07T05:07:06;2.60;99.90
7411;DHT22;3747;48.628;9.058;2024-01-07T05:09:32;2.70;99.90
7411;DHT22;3747;48.628;9.058;2024-01-07T05:11:59;2.60;99.90
7411;DHT22;3747;48.628;9.058;2024-01-07T05:14:26;2.70;99.90
7411;DHT22;3747;48.628;9.058;2024-01-07T05:16:55;2.60;99.90
7411;DHT22;3747;48.628;9.058;2024-01-07T05:19:21;2.60;99.90
7411;DHT22;3747;48.628;9.058;2024-01-07T05:21:48;2.60;99.90
7411;DHT22;3747;48.628;9.058;2024-01-07T05:24:15;2.60;99.90
7411;DHT22;3747;48.628;9.058;2024-01-07T05:26:43;2.60;99.90
7411;DHT22;3747;48.628;9.058;2024-01-07T05:29:10;2.60;99.90
7411;DHT22;3747;48.628;9.058;2024-01-07T05:31:37;2.60;99.90
7411;DHT22;3747;48.628;9.058;2024-01-07T05:34:05;2.60;99.90
7411;DHT22;3747;48.628;9.058;2024-01-07T05:36:32;2.60;99.90
7411;DHT22;3747;48.628;9.058;2024-01-07T05:38:58;2.60;99.90
7411;DHT22;3747;48.628;9.058;2024-01-07T05:41:25;2.60;99.90
7411;DHT22;3747;48.628;9.058;2024-01-07T05:43:52;2.60;99.90
7411;DHT22;3747;48.628;9.058;2024-01-07T05:46:19;2.60;99.90
7411;DHT22;3747;48.628;9.058;2024-01-07T05:48:47;2.60;99.90
7411;DHT22;3747;48.628;9.058;2024-01-07T05:51:16;2.60;99.90
7411;DHT22;3747;48.628;9.058;2024-01-07T05:53:44;2.60;99.90
7411;DHT22;3747;48.628;9.058;2024-01-07T05:56:10;2.60;99.90
7411;DHT22;3747;48.628;9.058;2024-01-07T05:58:37;2.60;99.90
7411;DHT22;3747;48.628;9.058;2024-01-07T06:01:04;2.60;99.90
7411;DHT22;3747;48.628;9.058;2024-01-07T06:03:32;2.60;99.90
7411;DHT22;3747;48.628;9.058;2024-01-07T06:05:59;2.60;99.90
7411;DHT22;3747;48.628;9.058;2024-01-07T06:08:27;2.60;99.90
7411;DHT22;3747;48.628;9.058;2024-01-07T06:11:01;2.60;99.90
7411;DHT22;3747;48.628;9.058;2024-01-07T06:13:27;2.60;99.90
7411;DHT22;3747;48.628;9.058;2024-01-07T06:15:54;2.60;99.90
7411;DHT22;3747;48.628;9.058;2024-01-07T06:18:21;2.60;99.90
7411;DHT22;3747;48.628;9.058;2024-01-07T06:20:47;2.60;99.90
7411;DHT22;3747;48.628;9.058;2024-01-07T06:23:14;2.60;99.90
7411;DHT22;3747;48.628;9.058;2024-01-07T06:25:42;2.60;99.90
7411;DHT22;3747;48.628;9.058;2024-01-07T06:28:09;2.60;99.90
7411;DHT22;3747;48.628;9.058;2024-01-07T06:30:36;2.60;99.90
7411;DHT22;3747;48.628;9.058;2024-01-07T06:33:03;2.60;99.90
7411;DHT22;3747;48.628;9.058;2024-01-07T06:35:30;2.60;99.90
7411;DHT22;3747;48.628;9.058;2024-01-07T06:37:57;2.60;99.90
7411;DHT22;3747;48.628;9.058;2024-01-07T06:40:24;2.60;99.90
7411;DHT22;3747;48.628;9.058;2024-01-07T06:42:52;2.50;99.90
7411;DHT22;3747;48.628;9.058;2024-01-07T06:45:18;2.50;99.90
7411;DHT22;3747;48.628;9.058;2024-01-07T06:47:45;2.50;99.90
7411;DHT22;3747;48.628;9.058;2024-01-07T06:50:12;2.50;99.90
7411;DHT22;3747;48.628;9.058;2024-01-07T06:52:39;2.60;99.90
7411;DHT22;3747;48.628;9.058;2024-01-07T06:55:06;2.50;99.90
7411;DHT22;3747;48.628;9.058;2024-01-07T06:57:33;2.50;99.90
7411;DHT22;3747;48.628;9.058;2024-01-07T07:00:01;2.50;99.90
7411;DHT22;3747;48.628;9.058;2024-01-07T07:02:29;2.50;99.90
7411;DHT22;3747;48.628;9.058;2024-01-07T07:04:56;2.50;99.90
7411;DHT22;3747;48.628;9.058;2024-01-07T07:07:23;2.50;99.90
7411;DHT22;3747;48.628;9.058;2024-01-07T07:09:49;2.50;99.90
7411;DHT22;3747;48.628;9.058;2024-01-07T07:12:17;2.50;99.90
7411;DHT22;3747;48.628;9.058;2024-01-07T07:14:44;2.50;99.90
7411;DHT22;3747;48.628;9.058;2024-01-07T07:17:12;2.50;99.90
7411;DHT22;3747;48.628;9.058;2024-01-07T07:19:39;2.50;99.90
7411;DHT22;3747;48.628;9.058;2024-01-07T07:22:06;2.40;99.90
7411;DHT22;3747;48.628;9.058;2024-01-07T07:24:32;2.40;99.90
7411;DHT22;3747;48.628;9.058;2024-01-07T07:26:59;2.40;99.90
7411;DHT22;3747;48.628;9.058;2024-01-07T07:29:25;2.40;99.90
7411;DHT22;3747;48.628;9.058;2024-01-07T07:31:52;2.40;99.90
7411;DHT22;3747;48.628;9.058;2024-01-07T07:34:20;2.40;99.90
7411;DHT22;3747;48.628;9.058;2024-01-07T07:36:47;2.40;99.90
7411;DHT22;3747;48.628;9.058;2024-01-07T07:39:13;2.30;99.90
7411;DHT22;3747;48.628;9.058;2024-01-07T07:41:40;2.30;99.90
7411;DHT22;3747;48.628;9.058;2024-01-07T07:44:07;2.30;99.90
7411;DHT22;3747;48.628;9.058;2024-01-07T07:46:33;2.30;99.90
7411;DHT22;3747;48.628;9.058;2024-01-07T07:49:00;2.30;99.90
7411;DHT22;3747;48.628;9.058;2024-01-07T07:51:29;2.30;99.90
7411;DHT22;3747;48.628;9.058;2024-01-07T07:53:55;2.20;99.90
7411;DHT22;3747;48.628;9.058;2024-01-07T07:56:22;2.20;99.90
7411;DHT22;3747;48.628;9.058;2024-01-07T07:58:49;2.20;99.90
7411;DHT22;3747;48.628;9.058;2024-01-07T08:01:17;2.10;99.90
7411;DHT22;3747;48.628;9.058;2024-01-07T08:03:44;2.20;99.90
7411;DHT22;3747;48.628;9.058;2024-01-07T08:06:11;2.10;99.90
7411;DHT22;3747;48.628;9.058;2024-01-07T08:08:39;2.10;99.90
7411;DHT22;3747;48.628;9.058;2024-01-07T08:11:06;2.10;99.90
7411;DHT22;3747;48.628;9.058;2024-01-07T08:13:35;2.00;99.90
7411;DHT22;3747;48.628;9.058;2024-01-07T08:16:01;2.00;99.90
7411;DHT22;3747;48.628;9.058;2024-01-07T08:18:28;2.00;99.90
7411;DHT22;3747;48.628;9.058;2024-01-07T08:20:55;2.00;99.90
7411;DHT22;3747;48.628;9.058;2024-01-07T08:23:22;1.90;99.90
7411;DHT22;3747;48.628;9.058;2024-01-07T08:25:50;1.80;99.90
7411;DHT22;3747;48.628;9.058;2024-01-07T08:28:17;1.80;99.90
7411;DHT22;3747;48.628;9.058;2024-01-07T08:30:44;1.80;99.90
7411;DHT22;3747;48.628;9.058;2024-01-07T08:33:12;1.70;99.90
7411;DHT22;3747;48.628;9.058;2024-01-07T08:35:39;1.70;99.90
7411;DHT22;3747;48.628;9.058;2024-01-07T08:38:06;1.70;99.90
7411;DHT22;3747;48.628;9.058;2024-01-07T08:40:33;1.80;99.90
7411;DHT22;3747;48.628;9.058;2024-01-07T08:43:02;1.80;99.90
7411;DHT22;3747;48.628;9.058;2024-01-07T08:45:28;1.80;99.90
7411;DHT22;3747;48.628;9.058;2024-01-07T08:47:55;1.80;99.90
7411;DHT22;3747;48.628;9.058;2024-01-07T08:50:22;1.80;99.90
7411;DHT22;3747;48.628;9.058;2024-01-07T08:52:48;1.80;99.90
7411;DHT22;3747;48.628;9.058;2024-01-07T08:55:15;1.70;99.90
7411;DHT22;3747;48.628;9.058;2024-01-07T08:57:42;1.70;99.90
7411;DHT22;3747;48.628;9.058;2024-01-07T09:00:11;1.60;99.90
7411;DHT22;3747;48.628;9.058;2024-01-07T09:02:38;1.60;99.90
7411;DHT22;3747;48.628;9.058;2024-01-07T09:05:06;1.60;99.90
7411;DHT22;3747;48.628;9.058;2024-01-07T09:07:32;1.70;99.90
7411;DHT22;3747;48.628;9.058;2024-01-07T09:09:59;1.70;99.90
7411;DHT22;3747;48.628;9.058;2024-01-07T09:12:26;1.70;99.90
7411;DHT22;3747;48.628;9.058;2024-01-07T09:14:53;1.70;99.90
7411;DHT22;3747;48.628;9.058;2024-01-07T09:17:21;1.60;99.90
7411;DHT22;3747;48.628;9.058;2024-01-07T09:19:48;1.60;99.90
7411;DHT22;3747;48.628;9.058;2024-01-07T09:22:15;1.60;99.90
7411;DHT22;3747;48.628;9.058;2024-01-07T09:24:42;1.60;99.90
7411;DHT22;3747;48.628;9.058;2024-01-07T09:27:09;1.60;99.90
7411;DHT22;3747;48.628;9.058;2024-01-07T09:29:44;1.60;99.90
7411;DHT22;3747;48.628;9.058;2024-01-07T09:32:10;1.60;99.90
7411;DHT22;3747;48.628;9.058;2024-01-07T09:34:38;1.70;99.90
7411;DHT22;3747;48.628;9.058;2024-01-07T09:37:05;1.70;99.90
7411;DHT22;3747;48.628;9.058;2024-01-07T09:39:51;1.70;99.90
7411;DHT22;3747;48.628;9.058;2024-01-07T09:42:26;1.60;99.90
7411;DHT22;3747;48.628;9.058;2024-01-07T09:44:53;1.60;99.90
7411;DHT22;3747;48.628;9.058;2024-01-07T09:47:20;1.60;99.90
7411;DHT22;3747;48.628;9.058;2024-01-07T09:49:51;1.70;99.90
7411;DHT22;3747;48.628;9.058;2024-01-07T09:52:28;1.70;99.90
7411;DHT22;3747;48.628;9.058;2024-01-07T09:54:58;1.60;99.90
7411;DHT22;3747;48.628;9.058;2024-01-07T09:57:25;1.60;99.90
7411;DHT22;3747;48.628;9.058;2024-01-07T09:59:52;1.60;99.90
7411;DHT22;3747;48.628;9.058;2024-01-07T10:02:20;1.60;99.90
7411;DHT22;3747;48.628;9.058;2024-01-07T10:04:47;1.60;99.90
7411;DHT22;3747;48.628;9.058;2024-01-07T10:07:16;1.70;99.90
7411;DHT22;3747;48.628;9.058;2024-01-07T10:09:43;1.70;99.90
7411;DHT22;3747;48.628;9.058;2024-01-07T10:12:09;1.60;99.90
7411;DHT22;3747;48.628;9.058;2024-01-07T10:14:38;1.70;99.90
7411;DHT22;3747;48.628;9.058;2024-01-07T10:17:14;1.60;99.90
7411;DHT22;3747;48.628;9.058;2024-01-07T10:19:43;1.70;99.90
7411;DHT22;3747;48.628;9.058;2024-01-07T10:22:12;1.80;99.90
7411;DHT22;3747;48.628;9.058;2024-01-07T10:24:41;1.80;99.90
7411;DHT22;3747;48.628;9.058;2024-01-07T10:27:12;1.80;99.90
7411;DHT22;3747;48.628;9.058;2024-01-07T10:29:39;1.80;99.90
7411;DHT22;3747;48.628;9.058;2024-01-07T10:32:06;1.80;99.90
7411;DHT22;3747;48.628;9.058;2024-01-07T10:34:35;1.80;99.90
7411;DHT22;3747;48.628;9.058;2024-01-07T10:37:03;1.80;99.90
7411;DHT22;3747;48.628;9.058;2024-01-07T10:39:40;1.70;99.90
7411;DHT22;3747;48.628;9.058;2024-01-07T10:42:08;1.70;99.90
7411;DHT22;3747;48.628;9.058;2024-01-07T10:44:38;1.60;99.90
7411;DHT22;3747;48.628;9.058;2024-01-07T10:47:13;1.60;99.90
7411;DHT22;3747;48.628;9.058;2024-01-07T10:49:42;1.60;99.90
7411;DHT22;3747;48.628;9.058;2024-01-07T10:52:10;1.50;99.90
7411;DHT22;3747;48.628;9.058;2024-01-07T10:54:42;1.40;99.90
7411;DHT22;3747;48.628;9.058;2024-01-07T10:57:20;1.40;99.90
7411;DHT22;3747;48.628;9.058;2024-01-07T10:59:50;1.40;99.90
7411;DHT22;3747;48.628;9.058;2024-01-07T11:02:18;1.40;99.90
7411;DHT22;3747;48.628;9.058;2024-01-07T11:04:54;1.40;99.90
7411;DHT22;3747;48.628;9.058;2024-01-07T11:07:29;1.30;99.90
7411;DHT22;3747;48.628;9.058;2024-01-07T11:10:08;1.30;99.90
7411;DHT22;3747;48.628;9.058;2024-01-07T11:12:36;1.40;99.90
7411;DHT22;3747;48.628;9.058;2024-01-07T11:15:04;1.30;99.90
7411;DHT22;3747;48.628;9.058;2024-01-07T11:17:41;1.20;99.90
7411;DHT22;3747;48.628;9.058;2024-01-07T11:20:16;1.10;99.90
7411;DHT22;3747;48.628;9.058;2024-01-07T11:22:49;1.10;99.90
7411;DHT22;3747;48.628;9.058;2024-01-07T11:25:30;1.10;99.90
7411;DHT22;3747;48.628;9.058;2024-01-07T11:27:57;1.00;99.90
7411;DHT22;3747;48.628;9.058;2024-01-07T11:30:27;1.00;99.90
7411;DHT22;3747;48.628;9.058;2024-01-07T11:32:58;0.90;99.90
7411;DHT22;3747;48.628;9.058;2024-01-07T11:35:55;0.90;99.90
7411;DHT22;3747;48.628;9.058;2024-01-07T11:38:22;0.90;99.90
7411;DHT22;3747;48.628;9.058;2024-01-07T11:40:51;0.90;99.90
7411;DHT22;3747;48.628;9.058;2024-01-07T11:43:18;0.90;99.90
7411;DHT22;3747;48.628;9.058;2024-01-07T11:45:45;0.90;99.90
7411;DHT22;3747;48.628;9.058;2024-01-07T11:48:12;0.90;99.90
7411;DHT22;3747;48.628;9.058;2024-01-07T11:50:39;0.90;99.90
7411;DHT22;3747;48.628;9.058;2024-01-07T11:53:07;0.90;99.90
7411;DHT22;3747;48.628;9.058;2024-01-07T11:55:35;1.00;99.90
7411;DHT22;3747;48.628;9.058;2024-01-07T11:58:03;1.00;99.90
7411;DHT22;3747;48.628;9.058;2024-01-07T12:00:31;1.00;99.90
7411;DHT22;3747;48.628;9.058;2024-01-07T12:02:59;1.00;99.90
7411;DHT22;3747;48.628;9.058;2024-01-07T12:05:25;1.00;99.90
7411;DHT22;3747;48.628;9.058;2024-01-07T12:07:55;1.00;99.90
7411;DHT22;3747;48.628;9.058;2024-01-07T12:10:23;1.00;99.90
7411;DHT22;3747;48.628;9.058;2024-01-07T12:12:50;1.00;99.90
7411;DHT22;3747;48.628;9.058;2024-01-07T12:15:20;1.00;99.90
7411;DHT22;3747;48.628;9.058;2024-01-07T12:17:57;1.00;99.90
7411;DHT22;3747;48.628;9.058;2024-01-07T12:20:25;1.00;99.90
7411;DHT22;3747;48.628;9.058;2024-01-07T12:22:54;1.00;99.90
7411;DHT22;3747;48.628;9.058;2024-01-07T12:25:24;1.00;99.90
7411;DHT22;3747;48.628;9.058;2024-01-07T12:27:50;1.00;99.90
7411;DHT22;3747;48.628;9.058;2024-01-07T12:30:20;1.00;99.90
7411;DHT22;3747;48.628;9.058;2024-01-07T12:32:47;0.90;99.90
7411;DHT22;3747;48.628;9.058;2024-01-07T12:35:14;0.90;99.90
7411;DHT22;3747;48.628;9.058;2024-01-07T12:37:42;0.90;99.90
7411;DHT22;3747;48.628;9.058;2024-01-07T12:40:11;0.80;99.90
7411;DHT22;3747;48.628;9.058;2024-01-07T12:42:37;0.80;99.90
7411;DHT22;3747;48.628;9.058;2024-01-07T12:45:10;0.70;99.90
7411;DHT22;3747;48.628;9.058;2024-01-07T12:47:38;0.70;99.90
7411;DHT22;3747;48.628;9.058;2024-01-07T12:50:05;0.70;99.90
7411;DHT22;3747;48.628;9.058;2024-01-07T12:52:39;0.70;99.90
7411;DHT22;3747;48.628;9.058;2024-01-07T12:55:07;0.60;99.90
7411;DHT22;3747;48.628;9.058;2024-01-07T12:57:34;0.70;99.90
7411;DHT22;3747;48.628;9.058;2024-01-07T13:00:01;0.60;99.90
7411;DHT22;3747;48.628;9.058;2024-01-07T13:02:39;0.70;99.90
7411;DHT22;3747;48.628;9.058;2024-01-07T13:05:07;0.70;99.90
7411;DHT22;3747;48.628;9.058;2024-01-07T13:07:34;0.70;99.90
7411;DHT22;3747;48.628;9.058;2024-01-07T13:10:01;0.80;99.90
7411;DHT22;3747;48.628;9.058;2024-01-07T13:12:27;0.70;99.90
7411;DHT22;3747;48.628;9.058;2024-01-07T13:14:54;0.60;99.90
7411;DHT22;3747;48.628;9.058;2024-01-07T13:17:21;0.60;99.90
7411;DHT22;3747;48.628;9.058;2024-01-07T13:19:49;0.60;99.90
7411;DHT22;3747;48.628;9.058;2024-01-07T13:22:15;0.60;99.90
7411;DHT22;3747;48.628;9.058;2024-01-07T13:24:42;0.60;99.90
7411;DHT22;3747;48.628;9.058;2024-01-07T13:27:09;0.60;99.90
7411;DHT22;3747;48.628;9.058;2024-01-07T13:29:35;0.50;99.90
7411;DHT22;3747;48.628;9.058;2024-01-07T13:32:02;0.50;99.90
7411;DHT22;3747;48.628;9.058;2024-01-07T13:34:29;0.50;99.90
7411;DHT22;3747;48.628;9.058;2024-01-07T13:36:57;0.50;99.90
7411;DHT22;3747;48.628;9.058;2024-01-07T13:39:24;0.40;99.90
7411;DHT22;3747;48.628;9.058;2024-01-07T13:41:51;0.40;99.90
7411;DHT22;3747;48.628;9.058;2024-01-07T13:44:33;0.40;99.90
7411;DHT22;3747;48.628;9.058;2024-01-07T13:47:01;0.40;99.90
7411;DHT22;3747;48.628;9.058;2024-01-07T13:49:27;0.40;99.90
7411;DHT22;3747;48.628;9.058;2024-01-07T13:51:54;0.40;99.90
7411;DHT22;3747;48.628;9.058;2024-01-07T13:54:29;0.40;99.90
7411;DHT22;3747;48.628;9.058;2024-01-07T13:56:58;0.30;99.90
7411;DHT22;3747;48.628;9.058;2024-01-07T13:59:25;0.30;99.90
7411;DHT22;3747;48.628;9.058;2024-01-07T14:01:52;0.30;99.90
7411;DHT22;3747;48.628;9.058;2024-01-07T14:04:19;0.20;99.90
7411;DHT22;3747;48.628;9.058;2024-01-07T14:06:45;0.20;99.90
7411;DHT22;3747;48.628;9.058;2024-01-07T14:09:13;0.20;99.90
7411;DHT22;3747;48.628;9.058;2024-01-07T14:11:41;0.20;99.90
7411;DHT22;3747;48.628;9.058;2024-01-07T14:14:08;0.20;99.90
7411;DHT22;3747;48.628;9.058;2024-01-07T14:16:34;0.20;99.90
7411;DHT22;3747;48.628;9.058;2024-01-07T14:19:01;0.20;99.90
7411;DHT22;3747;48.628;9.058;2024-01-07T14:21:28;0.10;99.90
7411;DHT22;3747;48.628;9.058;2024-01-07T14:23:55;0.00;99.90
7411;DHT22;3747;48.628;9.058;2024-01-07T14:26:22;0.00;99.90
7411;DHT22;3747;48.628;9.058;2024-01-07T14:28:50;-0.10;99.90
7411;DHT22;3747;48.628;9.058;2024-01-07T14:31:17;0.00;99.90
7411;DHT22;3747;48.628;9.058;2024-01-07T14:33:44;0.00;99.90
7411;DHT22;3747;48.628;9.058;2024-01-07T14:36:10;0.00;99.90
7411;DHT22;3747;48.628;9.058;2024-01-07T14:38:43;-0.20;99.90
7411;DHT22;3747;48.628;9.058;2024-01-07T14:41:09;-0.20;99.90
7411;DHT22;3747;48.628;9.058;2024-01-07T14:43:36;-0.20;99.90
7411;DHT22;3747;48.628;9.058;2024-01-07T14:46:06;-0.20;99.90
7411;DHT22;3747;48.628;9.058;2024-01-07T14:48:41;-0.30;99.90
7411;DHT22;3747;48.628;9.058;2024-01-07T14:51:07;-0.30;99.90
7411;DHT22;3747;48.628;9.058;2024-01-07T14:53:35;-0.40;99.90
7411;DHT22;3747;48.628;9.058;2024-01-07T14:56:01;-0.40;99.90
7411;DHT22;3747;48.628;9.058;2024-01-07T14:58:28;-0.40;99.90
7411;DHT22;3747;48.628;9.058;2024-01-07T15:00:55;-0.30;99.90
7411;DHT22;3747;48.628;9.058;2024-01-07T15:03:24;-0.40;99.90
7411;DHT22;3747;48.628;9.058;2024-01-07T15:05:51;-0.40;99.90
7411;DHT22;3747;48.628;9.058;2024-01-07T15:08:18;-0.40;99.90
7411;DHT22;3747;48.628;9.058;2024-01-07T15:10:44;-0.40;99.90
7411;DHT22;3747;48.628;9.058;2024-01-07T15:13:11;-0.50;99.90
7411;DHT22;3747;48.628;9.058;2024-01-07T15:15:38;-0.40;99.90
7411;DHT22;3747;48.628;9.058;2024-01-07T15:18:05;-0.50;99.90
7411;DHT22;3747;48.628;9.058;2024-01-07T15:20:33;-0.50;99.90
7411;DHT22;3747;48.628;9.058;2024-01-07T15:22:59;-0.60;99.90
7411;DHT22;3747;48.628;9.058;2024-01-07T15:25:26;-0.60;99.90
7411;DHT22;3747;48.628;9.058;2024-01-07T15:27:52;-0.60;99.90
7411;DHT22;3747;48.628;9.058;2024-01-07T15:30:19;-0.70;99.90
7411;DHT22;3747;48.628;9.058;2024-01-07T15:32:46;-0.70;99.90
7411;DHT22;3747;48.628;9.058;2024-01-07T15:35:12;-0.70;99.90
7411;DHT22;3747;48.628;9.058;2024-01-07T15:37:47;-0.70;99.90
7411;DHT22;3747;48.628;9.058;2024-01-07T15:40:14;-0.80;99.90
7411;DHT22;3747;48.628;9.058;2024-01-07T15:42:41;-0.80;99.90
7411;DHT22;3747;48.628;9.058;2024-01-07T15:45:08;-0.80;99.90
7411;DHT22;3747;48.628;9.058;2024-01-07T15:47:35;-0.90;99.90
7411;DHT22;3747;48.628;9.058;2024-01-07T15:50:02;-0.90;99.90
7411;DHT22;3747;48.628;9.058;2024-01-07T15:52:29;-0.90;99.90
7411;DHT22;3747;48.628;9.058;2024-01-07T15:54:58;-1.00;99.90
7411;DHT22;3747;48.628;9.058;2024-01-07T15:57:25;-1.00;99.90
7411;DHT22;3747;48.628;9.058;2024-01-07T15:59:51;-1.00;99.90
7411;DHT22;3747;48.628;9.058;2024-01-07T16:02:18;-1.00;99.90
7411;DHT22;3747;48.628;9.058;2024-01-07T16:04:44;-1.00;99.90
7411;DHT22;3747;48.628;9.058;2024-01-07T16:07:11;-1.10;99.90
7411;DHT22;3747;48.628;9.058;2024-01-07T16:09:38;-1.10;99.90
7411;DHT22;3747;48.628;9.058;2024-01-07T16:12:06;-1.20;99.90
7411;DHT22;3747;48.628;9.058;2024-01-07T16:14:34;-1.20;99.90
7411;DHT22;3747;48.628;9.058;2024-01-07T16:17:01;-1.20;99.90
7411;DHT22;3747;48.628;9.058;2024-01-07T16:19:27;-1.10;99.90